createdAt,value
2023-01-25T05:00:53.991Z,23.33
2023-01-25T05:03:27.407Z,21.70
2023-01-25T05:05:59.300Z,27.20
2023-01-25T05:08:30.956Z,23.37
2023-01-25T05:11:02.584Z,23.57
2023-01-25T05:13:34.614Z,25.10
2023-01-25T05:16:09.121Z,26.63
2023-01-25T05:18:48.539Z,25.00
2023-01-25T05:21:20.770Z,27.13
2023-01-25T05:23:52.492Z,23.37
2023-01-25T05:26:24.265Z,26.60
2023-01-25T05:28:55.933Z,24.97
2023-01-25T05:31:28.983Z,26.00
2023-01-25T05:34:00.743Z,24.33
2023-01-25T05:36:32.399Z,24.17
2023-01-25T05:39:05.474Z,24.07
2023-01-25T05:41:37.116Z,23.47
2023-01-25T05:44:08.833Z,26.53
2023-01-25T05:46:41.848Z,24.03
2023-01-25T05:49:13.674Z,26.23
2023-01-25T05:51:45.311Z,26.73
2023-01-25T05:54:17.259Z,26.13
2023-01-25T05:56:49.270Z,25.93
2023-01-25T05:59:20.927Z,26.57
2023-01-25T06:01:54.259Z,25.70
2023-01-25T06:04:26.098Z,28.67
2023-01-25T06:06:57.753Z,27.53
2023-01-25T06:09:29.401Z,26.77
2023-01-25T06:12:01.034Z,27.83
2023-01-25T06:14:32.706Z,27.40
2023-01-25T06:17:05.929Z,25.40
2023-01-25T06:19:37.660Z,25.80
2023-01-25T06:22:09.915Z,27.43
2023-01-25T06:24:41.574Z,27.63
2023-01-25T06:27:13.270Z,26.63
2023-01-25T06:29:44.945Z,26.77
2023-01-25T06:32:17.990Z,26.07
2023-01-25T06:34:49.663Z,24.67
2023-01-25T06:37:21.294Z,24.63
2023-01-25T06:39:53.104Z,27.53
2023-01-25T06:42:24.916Z,27.10
2023-01-25T06:44:56.642Z,25.57
2023-01-25T06:47:29.633Z,28.83
2023-01-25T06:50:01.294Z,26.97
2023-01-25T06:52:32.976Z,26.77
2023-01-25T06:55:04.999Z,29.47
2023-01-25T06:57:36.669Z,29.73
2023-01-25T07:00:09.511Z,29.77
2023-01-25T07:02:42.585Z,31.13
2023-01-25T07:05:14.391Z,33.07
2023-01-25T07:07:46.541Z,33.90
2023-01-25T07:10:18.212Z,31.40
2023-01-25T07:12:49.874Z,29.83
2023-01-25T07:15:21.547Z,33.50
2023-01-25T07:17:54.551Z,36.10
2023-01-25T07:20:26.206Z,32.47
2023-01-25T07:23:00.562Z,35.80
2023-01-25T07:25:33.966Z,34.50
2023-01-25T07:28:05.642Z,31.83
2023-01-25T07:30:37.281Z,28.20
2023-01-25T07:33:10.382Z,29.33
2023-01-25T07:35:42.020Z,30.33
2023-01-25T07:38:14.785Z,30.93
2023-01-25T07:40:51.646Z,34.30
2023-01-25T07:43:23.678Z,32.43
2023-01-25T07:46:00.378Z,28.83
2023-01-25T07:48:33.405Z,30.90
2023-01-25T07:51:06.345Z,32.07
2023-01-25T07:53:38.364Z,30.87
2023-01-25T07:56:11.044Z,33.27
2023-01-25T07:58:42.727Z,32.13
2023-01-25T08:01:15.372Z,32.00
2023-01-25T08:03:48.942Z,32.67
2023-01-25T08:06:23.431Z,31.30
2023-01-25T08:08:55.101Z,34.50
2023-01-25T08:11:27.749Z,35.63
2023-01-25T08:13:59.389Z,34.17
2023-01-25T08:16:31.419Z,34.40
2023-01-25T08:19:04.469Z,36.70
2023-01-25T08:21:36.119Z,37.93
2023-01-25T08:24:08.166Z,35.40
2023-01-25T08:26:39.847Z,35.37
2023-01-25T08:29:11.730Z,40.63
2023-01-25T08:31:43.424Z,40.63
2023-01-25T08:34:16.430Z,42.70
2023-01-25T08:36:48.108Z,42.57
2023-01-25T08:39:19.791Z,38.53
2023-01-25T08:41:51.437Z,38.50
2023-01-25T08:44:23.122Z,42.97
2023-01-25T08:46:54.751Z,40.63
2023-01-25T08:49:27.732Z,40.33
2023-01-25T08:51:59.375Z,44.33
2023-01-25T08:54:31.232Z,39.90
2023-01-25T08:57:03.000Z,40.80
2023-01-25T08:59:34.689Z,41.63
2023-01-25T09:02:06.377Z,41.47
2023-01-25T09:04:39.370Z,38.13
2023-01-25T09:07:11.033Z,39.03
2023-01-25T09:09:42.746Z,44.37
2023-01-25T09:12:14.410Z,37.67
2023-01-25T09:14:46.070Z,39.80
2023-01-25T09:17:17.688Z,40.87
2023-01-25T09:22:23.267Z,40.47
2023-01-25T09:24:54.953Z,37.37
2023-01-25T09:27:26.606Z,36.23
2023-01-25T09:30:02.168Z,40.73
2023-01-25T09:32:34.898Z,47.47
2023-01-25T09:35:08.306Z,44.73
2023-01-25T09:37:39.974Z,41.43
2023-01-25T09:40:14.104Z,39.90
2023-01-25T09:42:58.366Z,39.33
2023-01-25T09:45:31.397Z,42.80
2023-01-25T09:48:09.803Z,36.63
2023-01-25T09:50:53.412Z,41.33
2023-01-25T09:53:33.539Z,37.83
2023-01-25T09:56:10.249Z,38.80
2023-01-25T09:58:44.571Z,43.87
2023-01-25T10:01:36.603Z,41.80
2023-01-25T10:04:13.050Z,39.00
2023-01-25T10:07:02.719Z,39.97
2023-01-25T10:09:37.711Z,44.70
2023-01-25T10:12:14.772Z,43.80
2023-01-25T10:14:46.514Z,40.70
2023-01-25T10:17:23.783Z,41.37
2023-01-25T10:20:03.132Z,42.80
2023-01-25T10:22:38.736Z,49.07
2023-01-25T10:25:23.229Z,43.53
2023-01-25T10:28:03.276Z,44.53
2023-01-25T10:30:37.665Z,50.37
2023-01-25T10:33:12.781Z,44.20
2023-01-25T10:35:47.229Z,40.20
2023-01-25T10:38:24.463Z,45.60
2023-01-25T10:40:58.687Z,47.37
2023-01-25T10:43:30.388Z,45.40
2023-01-25T10:46:02.160Z,42.93
2023-01-25T10:48:35.136Z,46.93
2023-01-25T10:51:06.809Z,52.30
2023-01-25T10:53:39.851Z,48.30
2023-01-25T10:56:23.472Z,43.50
2023-01-25T10:59:06.521Z,50.30
2023-01-25T11:01:38.273Z,55.67
2023-01-25T11:04:32.681Z,44.83
2023-01-25T11:07:04.521Z,43.40
2023-01-25T11:09:38.602Z,49.03
2023-01-25T11:12:17.532Z,51.50
2023-01-25T11:14:49.660Z,45.53
2023-01-25T11:17:23.869Z,46.80
2023-01-25T11:20:07.873Z,44.80
2023-01-25T11:22:39.802Z,51.23
2023-01-25T11:25:29.496Z,51.03
2023-01-25T11:28:11.088Z,52.60
2023-01-25T11:30:42.796Z,45.90
2023-01-25T11:33:15.430Z,44.73
2023-01-25T11:35:59.512Z,46.80
2023-01-25T11:38:31.145Z,49.17
2023-01-25T11:41:09.667Z,46.07
2023-01-25T11:43:55.894Z,47.23
2023-01-25T11:46:34.289Z,44.80
2023-01-25T11:49:12.650Z,52.93
2023-01-25T11:51:49.986Z,49.60
2023-01-25T11:54:31.306Z,49.57
2023-01-25T11:57:09.299Z,45.87
2023-01-25T11:59:52.687Z,49.83
2023-01-25T12:02:49.235Z,46.17
2023-01-25T12:05:28.386Z,50.57
2023-01-25T12:08:07.744Z,48.97
2023-01-25T12:10:42.654Z,53.83
2023-01-25T12:13:18.230Z,51.47
2023-01-25T12:15:57.398Z,52.03
2023-01-25T12:18:47.211Z,56.73
2023-01-25T12:21:31.295Z,56.77
2023-01-25T12:24:16.087Z,51.97
2023-01-25T12:26:51.489Z,51.40
2023-01-25T12:29:29.161Z,50.33
2023-01-25T12:32:02.333Z,58.70
2023-01-25T12:34:35.964Z,51.83
2023-01-25T12:37:12.132Z,54.03
2023-01-25T12:39:46.373Z,50.27
2023-01-25T12:42:19.978Z,50.87
2023-01-25T12:44:56.206Z,48.93
2023-01-25T12:47:30.332Z,54.97
2023-01-25T12:50:04.558Z,51.13
2023-01-25T12:52:37.489Z,57.30
2023-01-25T12:55:13.310Z,57.13
2023-01-25T12:57:49.186Z,54.63
2023-01-25T13:00:23.584Z,52.10
2023-01-25T13:03:09.515Z,49.83
2023-01-25T13:05:44.092Z,53.17
2023-01-25T13:08:31.025Z,54.07
2023-01-25T13:11:10.238Z,44.70
2023-01-25T13:13:41.908Z,51.90
2023-01-25T13:16:31.596Z,52.93
2023-01-25T13:19:03.257Z,51.17
2023-01-25T13:21:42.823Z,48.93
2023-01-25T13:24:19.532Z,55.87
2023-01-25T13:27:04.495Z,42.60
2023-01-25T13:29:45.065Z,50.37
2023-01-25T13:33:04.482Z,49.20
2023-01-25T13:35:46.399Z,54.70
2023-01-25T13:38:33.795Z,55.63
2023-01-25T13:41:15.696Z,61.53
2023-01-25T13:43:48.324Z,55.53
2023-01-25T13:46:21.691Z,54.33
2023-01-25T13:49:01.617Z,56.37
2023-01-25T13:51:36.558Z,47.10
2023-01-25T13:54:15.339Z,49.50
2023-01-25T13:56:46.999Z,49.37
2023-01-25T13:59:25.254Z,50.17
2023-01-25T14:01:57.394Z,47.80
2023-01-25T14:04:29.568Z,45.90
2023-01-25T14:07:02.561Z,51.77
2023-01-25T14:09:34.220Z,46.30
2023-01-25T14:12:06.491Z,46.37
2023-01-25T14:14:38.257Z,51.43
2023-01-25T14:17:16.884Z,46.77
2023-01-25T14:19:49.032Z,47.40
2023-01-25T14:22:23.978Z,46.50
2023-01-25T14:25:06.870Z,45.47
2023-01-25T14:27:42.328Z,45.87
2023-01-25T14:30:23.821Z,41.30
2023-01-25T14:32:56.220Z,43.93
2023-01-25T14:35:55.119Z,40.93
2023-01-25T14:38:30.138Z,46.90
2023-01-25T14:41:06.025Z,48.83
2023-01-25T14:43:37.711Z,52.40
2023-01-25T14:46:19.807Z,57.83
2023-01-25T14:48:51.618Z,52.20
2023-01-25T14:51:25.984Z,53.87
2023-01-25T14:54:00.788Z,50.73
2023-01-25T14:56:40.508Z,45.10
2023-01-25T14:59:30.740Z,44.00
2023-01-25T15:02:03.814Z,55.40
2023-01-25T15:04:35.817Z,52.83
2023-01-25T15:07:34.037Z,53.87
2023-01-25T15:10:15.260Z,61.43
2023-01-25T15:13:04.222Z,62.23
2023-01-25T15:15:50.058Z,62.27
2023-01-25T15:18:40.842Z,57.33
2023-01-25T15:21:12.889Z,59.67
2023-01-25T15:23:45.312Z,70.40
2023-01-25T15:26:22.129Z,66.57
2023-01-25T15:28:54.603Z,62.37
2023-01-25T15:31:27.327Z,63.03
2023-01-25T15:33:59.201Z,62.67
2023-01-25T15:36:31.510Z,63.73
2023-01-25T15:39:03.193Z,67.53
2023-01-25T15:41:36.172Z,67.27
2023-01-25T15:44:08.006Z,63.67
2023-01-25T15:46:40.880Z,66.77
2023-01-25T15:49:16.329Z,69.37
2023-01-25T15:51:47.980Z,76.17
2023-01-25T15:54:19.608Z,65.57
2023-01-25T15:56:54.726Z,61.27
2023-01-25T15:59:26.367Z,67.50
2023-01-25T16:01:58.039Z,69.37
2023-01-25T16:04:29.667Z,68.20
2023-01-25T16:07:01.307Z,68.00
2023-01-25T16:09:32.965Z,69.87
2023-01-25T16:12:06.303Z,64.60
2023-01-25T16:14:37.931Z,61.83
2023-01-25T16:17:15.575Z,67.00
2023-01-25T16:19:47.242Z,65.33
2023-01-25T16:22:18.913Z,67.53
2023-01-25T16:24:50.573Z,65.83
2023-01-25T16:27:23.569Z,70.00
2023-01-25T16:29:55.219Z,72.20
2023-01-25T16:32:26.883Z,74.47
2023-01-25T16:34:58.584Z,62.00
2023-01-25T16:37:30.317Z,66.03
2023-01-25T16:40:02.007Z,64.83
2023-01-25T16:42:35.122Z,60.97
2023-01-25T16:45:07.970Z,72.07
2023-01-25T16:47:39.600Z,76.30
2023-01-25T16:50:12.895Z,76.73
2023-01-25T16:52:44.580Z,90.37
2023-01-25T16:55:16.531Z,77.87
2023-01-25T16:57:50.628Z,69.33
2023-01-25T17:00:22.627Z,68.17
2023-01-25T17:02:59.503Z,79.13
2023-01-25T17:05:33.734Z,76.13
2023-01-25T17:08:05.460Z,81.27
2023-01-25T17:10:37.198Z,80.13
2023-01-25T17:13:10.159Z,74.63
2023-01-25T17:15:42.122Z,75.40
2023-01-25T17:18:13.881Z,79.30
2023-01-25T17:20:45.539Z,79.63
2023-01-25T17:23:17.186Z,81.03
2023-01-25T17:25:48.850Z,89.23
2023-01-25T17:28:21.880Z,80.00
2023-01-25T17:30:54.669Z,67.13
2023-01-25T17:33:26.508Z,76.47
2023-01-25T17:36:01.644Z,76.70
2023-01-25T17:38:33.403Z,90.20
2023-01-25T17:41:05.310Z,76.03
2023-01-25T17:43:38.370Z,80.83
2023-01-25T17:46:13.221Z,81.77
2023-01-25T17:48:44.892Z,80.40
2023-01-25T17:51:16.554Z,78.53
2023-01-25T17:53:48.206Z,81.23
2023-01-25T17:56:20.040Z,77.40
2023-01-25T17:58:53.072Z,81.87
2023-01-25T18:01:26.571Z,77.97
2023-01-25T18:03:58.390Z,71.27
2023-01-25T18:06:30.842Z,82.13
2023-01-25T18:09:02.990Z,86.47
2023-01-25T18:11:35.809Z,84.20
2023-01-25T18:14:10.120Z,89.03
2023-01-25T18:16:41.774Z,82.87
2023-01-25T18:19:13.620Z,80.47
2023-01-25T18:21:45.283Z,93.30
2023-01-25T18:24:25.497Z,88.80
2023-01-25T18:27:00.236Z,87.10
2023-01-25T18:29:45.868Z,101.17
2023-01-25T18:32:17.496Z,84.37
2023-01-25T18:34:49.189Z,85.17
2023-01-25T18:37:21.165Z,73.77
2023-01-25T18:39:53.525Z,66.70
2023-01-25T18:42:25.487Z,61.50
2023-01-25T18:44:58.461Z,53.40
2023-01-25T18:47:30.108Z,56.47
2023-01-25T18:50:01.728Z,55.83
2023-01-25T18:52:34.416Z,48.20
2023-01-25T18:55:06.568Z,52.47
2023-01-25T18:57:38.167Z,49.37
2023-01-25T19:00:12.369Z,50.60
2023-01-25T19:02:44.182Z,46.23
2023-01-25T19:05:15.987Z,42.30
2023-01-25T19:07:47.614Z,46.23
2023-01-25T19:10:19.260Z,38.27
2023-01-25T19:12:50.937Z,33.60
2023-01-25T19:15:23.911Z,31.30
2023-01-25T19:17:55.529Z,40.13
2023-01-25T19:20:27.161Z,34.30
2023-01-25T19:22:58.786Z,37.57
2023-01-25T19:25:30.399Z,41.83
2023-01-25T19:28:02.020Z,42.13
2023-01-25T19:30:34.991Z,39.87
2023-01-25T19:33:06.627Z,39.57
2023-01-25T19:35:38.296Z,40.37
2023-01-25T19:38:09.938Z,42.17
2023-01-25T19:40:41.562Z,42.60
2023-01-25T19:43:13.550Z,38.43
2023-01-25T19:45:46.541Z,36.33
2023-01-25T19:48:18.150Z,41.00
2023-01-25T19:50:49.800Z,33.43
2023-01-25T19:53:21.407Z,32.20
2023-01-25T19:55:53.048Z,34.90
2023-01-25T19:58:26.244Z,31.17
2023-01-25T20:01:06.645Z,33.83
2023-01-25T20:03:38.304Z,35.83
2023-01-25T20:06:10.295Z,36.00
2023-01-25T20:08:43.105Z,37.47
2023-01-25T20:11:15.509Z,38.77
2023-01-25T20:13:47.280Z,38.13
2023-01-25T20:16:20.333Z,39.87
2023-01-25T20:18:52.074Z,37.47
2023-01-25T20:21:24.217Z,39.20
2023-01-25T20:23:56.779Z,42.50
2023-01-25T20:26:29.317Z,38.03
2023-01-25T20:29:00.989Z,34.57
2023-01-25T20:31:34.941Z,40.10
2023-01-25T20:34:07.428Z,40.87
2023-01-25T20:36:39.231Z,37.60
2023-01-25T20:39:11.774Z,38.93
2023-01-25T20:41:43.433Z,50.97
2023-01-25T20:44:15.802Z,48.37
2023-01-25T20:46:48.788Z,37.53
2023-01-25T20:49:20.462Z,37.27
2023-01-25T20:51:52.077Z,41.17
2023-01-25T20:54:23.722Z,40.03
2023-01-25T20:56:55.491Z,38.67
2023-01-25T20:59:27.135Z,39.77
2023-01-25T21:02:01.870Z,37.20
2023-01-25T21:04:33.499Z,36.47
2023-01-25T21:07:05.123Z,39.73
2023-01-25T21:09:36.731Z,35.70
2023-01-25T21:12:08.373Z,42.60
2023-01-25T21:14:39.981Z,34.83
2023-01-25T21:17:12.985Z,38.57
2023-01-25T21:19:44.612Z,33.67
2023-01-25T21:22:16.283Z,31.57
2023-01-25T21:24:47.901Z,28.50
2023-01-25T21:27:19.557Z,35.80
2023-01-25T21:29:51.235Z,34.37
2023-01-25T21:32:24.256Z,30.80
2023-01-25T21:34:55.863Z,32.93
2023-01-25T21:37:28.824Z,31.97
2023-01-25T21:40:00.440Z,36.30
2023-01-25T21:42:32.492Z,33.43
2023-01-25T21:45:05.131Z,36.87
2023-01-25T21:47:38.114Z,31.40
2023-01-25T21:50:10.941Z,32.13
2023-01-25T21:52:42.782Z,31.23
2023-01-25T21:55:14.515Z,33.03
2023-01-25T21:57:46.207Z,31.40
2023-01-25T22:00:18.685Z,36.07
2023-01-25T22:02:52.043Z,36.07
2023-01-25T22:05:23.786Z,38.37
2023-01-25T22:07:55.383Z,39.40
2023-01-25T22:10:27.029Z,46.77
2023-01-25T22:12:58.685Z,41.97
2023-01-25T22:15:30.316Z,51.57
2023-01-25T22:18:03.476Z,44.43
2023-01-25T22:20:35.118Z,51.27
2023-01-25T22:23:06.720Z,47.37
2023-01-25T22:25:38.394Z,47.80
2023-01-25T22:28:10.017Z,46.27
2023-01-25T22:30:41.689Z,45.97
2023-01-25T22:33:15.772Z,44.90
2023-01-25T22:35:47.407Z,47.03
2023-01-25T22:38:19.057Z,44.20
2023-01-25T22:40:50.679Z,53.53
2023-01-25T22:43:22.293Z,48.60
2023-01-25T22:45:53.996Z,58.53
2023-01-25T22:48:27.019Z,53.83
2023-01-25T22:51:01.958Z,50.20
2023-01-25T22:53:33.733Z,50.00
2023-01-25T22:56:07.001Z,55.47
2023-01-25T22:58:39.539Z,67.47
